createdAt,value
2023-04-16T00:02:05.520Z,4.63
2023-04-16T00:04:32.894Z,3.03
2023-04-16T00:07:02.280Z,3.72
2023-04-16T00:09:29.658Z,2.22
2023-04-16T00:11:57.045Z,3.65
2023-04-16T00:14:24.342Z,3.40
2023-04-16T00:16:51.570Z,3.00
2023-04-16T00:19:18.846Z,3.03
2023-04-16T00:21:46.090Z,4.03
2023-04-16T00:24:13.320Z,4.38
2023-04-16T00:26:41.071Z,3.50
2023-04-16T00:29:08.673Z,3.22
2023-04-16T00:31:36.132Z,6.28
2023-04-16T00:34:03.423Z,5.03
2023-04-16T00:36:30.612Z,4.38
2023-04-16T00:38:58.010Z,3.95
2023-04-16T00:41:26.809Z,3.90
2023-04-16T00:43:54.087Z,4.47
2023-04-16T00:46:22.855Z,4.13
2023-04-16T00:48:52.141Z,5.00
2023-04-16T00:51:20.626Z,3.78
2023-04-16T00:53:48.212Z,5.22
2023-04-16T00:56:15.915Z,4.82
2023-04-16T00:58:44.251Z,4.38
2023-04-16T01:01:11.511Z,4.18
2023-04-16T01:03:39.843Z,3.60
2023-04-16T01:06:07.683Z,6.05
2023-04-16T01:08:34.984Z,5.53
2023-04-16T01:11:02.438Z,5.53
2023-04-16T01:13:30.044Z,5.00
2023-04-16T01:15:57.553Z,3.42
2023-04-16T01:18:24.897Z,2.97
2023-04-16T01:20:52.208Z,4.00
2023-04-16T01:23:20.087Z,5.78
2023-04-16T01:25:47.657Z,5.03
2023-04-16T01:28:14.954Z,4.43
2023-04-16T01:30:42.263Z,4.50
2023-04-16T01:33:11.352Z,3.95
2023-04-16T01:35:38.778Z,5.15
2023-04-16T01:38:06.835Z,5.47
2023-04-16T01:40:34.449Z,6.78
2023-04-16T01:43:01.751Z,5.40
2023-04-16T01:45:28.973Z,5.70
2023-04-16T01:47:56.281Z,6.47
2023-04-16T01:50:23.535Z,5.93
2023-04-16T01:52:50.898Z,4.05
2023-04-16T01:55:18.132Z,6.78
2023-04-16T01:57:45.387Z,5.30
2023-04-16T02:00:12.676Z,6.03
2023-04-16T02:02:40.466Z,5.40
2023-04-16T02:05:07.831Z,4.18
2023-04-16T02:07:35.091Z,6.03
2023-04-16T02:10:02.516Z,5.10
2023-04-16T02:12:29.706Z,4.60
2023-04-16T02:14:56.941Z,5.95
2023-04-16T02:17:24.236Z,6.50
2023-04-16T02:19:51.552Z,6.28
2023-04-16T02:22:18.781Z,6.88
2023-04-16T02:24:46.129Z,6.53
2023-04-16T02:27:13.357Z,6.45
2023-04-16T02:29:40.672Z,4.53
2023-04-16T02:32:08.003Z,4.32
2023-04-16T02:34:35.549Z,3.35
2023-04-16T02:37:02.772Z,4.68
2023-04-16T02:39:29.992Z,3.97
2023-04-16T02:41:57.896Z,4.00
2023-04-16T02:44:25.733Z,3.55
2023-04-16T02:46:52.991Z,5.35
2023-04-16T02:49:20.164Z,5.68
2023-04-16T02:51:47.365Z,4.00
2023-04-16T02:54:14.525Z,6.68
2023-04-16T02:56:41.732Z,7.93
2023-04-16T02:59:09.103Z,8.85
2023-04-16T03:01:36.550Z,7.53
2023-04-16T03:04:03.874Z,5.15
2023-04-16T03:06:31.608Z,4.97
2023-04-16T03:08:58.950Z,5.53
2023-04-16T03:11:26.200Z,5.07
2023-04-16T03:13:53.897Z,4.13
2023-04-16T03:16:21.561Z,5.15
2023-04-16T03:18:48.890Z,5.93
2023-04-16T03:21:16.121Z,6.53
2023-04-16T03:23:43.370Z,5.65
2023-04-16T03:26:10.673Z,6.60
2023-04-16T03:28:37.880Z,6.18
2023-04-16T03:31:05.230Z,6.45
2023-04-16T03:33:32.501Z,8.98
2023-04-16T03:35:59.832Z,5.00
2023-04-16T03:38:27.102Z,4.72
2023-04-16T03:40:54.296Z,6.57
2023-04-16T03:43:21.541Z,5.22
2023-04-16T03:45:48.852Z,4.45
2023-04-16T03:48:16.099Z,4.47
2023-04-16T03:50:46.934Z,2.83
2023-04-16T03:53:14.500Z,3.05
2023-04-16T03:55:42.232Z,3.15
2023-04-16T03:58:09.706Z,2.17
2023-04-16T04:00:36.901Z,2.97
2023-04-16T04:03:04.452Z,2.53
2023-04-16T04:05:32.111Z,4.72
2023-04-16T04:07:59.343Z,5.75
2023-04-16T04:10:26.603Z,8.30
2023-04-16T04:12:53.775Z,5.95
2023-04-16T04:15:21.035Z,4.07
2023-04-16T04:17:48.304Z,4.40
2023-04-16T04:20:15.629Z,3.03
2023-04-16T04:22:42.818Z,3.67
2023-04-16T04:25:11.155Z,3.92
2023-04-16T04:27:38.373Z,2.95
2023-04-16T04:30:05.860Z,4.10
2023-04-16T04:32:33.104Z,5.40
2023-04-16T04:35:03.942Z,7.30
2023-04-16T04:37:31.211Z,7.32
2023-04-16T04:39:58.577Z,7.97
2023-04-16T04:42:25.832Z,6.35
2023-04-16T04:44:53.046Z,5.25
2023-04-16T04:47:20.298Z,6.10
2023-04-16T04:49:47.650Z,7.15
2023-04-16T04:52:14.907Z,6.90
2023-04-16T04:54:42.185Z,4.43
2023-04-16T04:57:09.606Z,4.28
2023-04-16T04:59:36.810Z,3.38
2023-04-16T05:02:04.218Z,2.33
2023-04-16T05:04:31.650Z,3.55
2023-04-16T05:06:58.896Z,2.97
2023-04-16T05:09:26.416Z,4.28
2023-04-16T05:11:53.778Z,4.20
2023-04-16T05:14:21.078Z,5.25
2023-04-16T05:16:48.357Z,4.75
2023-04-16T05:19:15.648Z,4.28
2023-04-16T05:21:43.044Z,6.90
2023-04-16T05:24:10.258Z,5.03
2023-04-16T05:26:37.456Z,6.15
2023-04-16T05:29:04.755Z,5.82
2023-04-16T05:31:32.073Z,5.43
2023-04-16T05:33:59.300Z,5.07
2023-04-16T05:36:26.497Z,4.55
2023-04-16T05:38:53.795Z,4.47
2023-04-16T05:41:21.194Z,4.75
2023-04-16T05:43:48.398Z,5.05
2023-04-16T05:46:15.679Z,5.10
2023-04-16T05:48:42.973Z,4.22
2023-04-16T05:51:10.207Z,3.83
2023-04-16T05:53:37.421Z,3.83
2023-04-16T05:56:04.714Z,3.60
2023-04-16T05:58:31.976Z,4.43
2023-04-16T06:00:59.275Z,3.25
2023-04-16T06:03:26.568Z,3.38
2023-04-16T06:05:54.191Z,2.88
2023-04-16T06:08:21.467Z,3.88
2023-04-16T06:10:49.070Z,3.63
2023-04-16T06:13:16.340Z,4.50
2023-04-16T06:15:43.688Z,5.15
2023-04-16T06:18:11.069Z,5.10
2023-04-16T06:20:38.484Z,4.85
2023-04-16T06:23:06.012Z,4.88
2023-04-16T06:25:34.059Z,6.75
2023-04-16T06:28:01.564Z,10.15
2023-04-16T06:30:28.860Z,10.25
2023-04-16T06:32:56.279Z,8.23
2023-04-16T06:35:23.562Z,7.18
2023-04-16T06:37:50.784Z,4.55
2023-04-16T06:40:18.039Z,4.95
2023-04-16T06:42:45.797Z,7.22
2023-04-16T06:45:13.370Z,6.90
2023-04-16T06:47:40.835Z,6.72
2023-04-16T06:50:08.474Z,5.05
2023-04-16T06:52:36.030Z,5.63
2023-04-16T06:55:03.544Z,3.60
2023-04-16T06:57:30.903Z,3.03
2023-04-16T06:59:58.091Z,6.78
2023-04-16T07:02:25.591Z,3.13
2023-04-16T07:04:52.934Z,3.40
2023-04-16T07:07:20.336Z,3.65
2023-04-16T07:09:47.618Z,3.53
2023-04-16T07:12:14.999Z,3.40
2023-04-16T07:14:42.389Z,2.55
2023-04-16T07:17:09.875Z,3.58
2023-04-16T07:19:37.506Z,3.75
2023-04-16T07:22:05.339Z,3.90
2023-04-16T07:24:32.654Z,2.95
2023-04-16T07:27:00.127Z,2.70
2023-04-16T07:29:27.436Z,3.58
2023-04-16T07:31:54.730Z,3.10
2023-04-16T07:34:22.336Z,2.65
2023-04-16T07:36:49.585Z,3.45
2023-04-16T07:39:18.492Z,3.15
2023-04-16T07:41:47.801Z,2.97
2023-04-16T07:44:15.934Z,3.65
2023-04-16T07:46:47.242Z,3.05
2023-04-16T07:49:17.367Z,5.57
2023-04-16T07:51:46.221Z,3.63
2023-04-16T07:54:15.454Z,5.18
2023-04-16T07:56:44.344Z,4.63
2023-04-16T08:01:41.761Z,4.85
2023-04-16T08:04:09.376Z,4.93
2023-04-16T08:06:36.655Z,5.90
2023-04-16T08:09:03.905Z,7.13
2023-04-16T08:11:31.155Z,5.60
2023-04-16T08:13:58.368Z,7.30
2023-04-16T08:16:25.635Z,4.30
2023-04-16T08:18:52.924Z,6.57
2023-04-16T08:21:20.266Z,6.93
2023-04-16T08:23:47.579Z,7.03
2023-04-16T08:26:14.831Z,6.82
2023-04-16T08:28:42.070Z,7.85
2023-04-16T08:31:09.461Z,7.65
2023-04-16T08:33:36.685Z,9.73
2023-04-16T08:36:03.919Z,6.53
2023-04-16T08:38:31.260Z,7.53
2023-04-16T08:41:03.488Z,5.85
2023-04-16T08:43:34.184Z,6.35
2023-04-16T08:46:01.763Z,6.10
2023-04-16T08:48:33.351Z,7.70
2023-04-16T08:51:01.712Z,6.53
2023-04-16T08:53:44.278Z,10.20
2023-04-16T08:56:12.586Z,6.97
2023-04-16T08:58:40.462Z,8.60
2023-04-16T09:01:10.991Z,9.88
2023-04-16T09:03:38.668Z,7.47
2023-04-16T09:06:07.157Z,6.82
2023-04-16T09:08:36.156Z,6.78
2023-04-16T09:11:04.051Z,5.60
2023-04-16T09:13:32.159Z,7.97
2023-04-16T09:15:59.510Z,6.00
2023-04-16T09:18:28.127Z,5.03
2023-04-16T09:20:56.413Z,5.32
2023-04-16T09:23:25.041Z,4.43
2023-04-16T09:25:52.292Z,4.97
2023-04-16T09:28:38.346Z,3.85
2023-04-16T09:31:16.158Z,3.47
2023-04-16T09:33:43.998Z,3.60
2023-04-16T09:36:11.260Z,3.65
2023-04-16T09:38:48.166Z,3.92
2023-04-16T09:41:18.752Z,5.05
2023-04-16T09:43:58.164Z,4.47
2023-04-16T09:46:26.116Z,5.47
2023-04-16T09:48:53.369Z,7.03
2023-04-16T09:51:20.598Z,7.53
2023-04-16T09:53:48.171Z,13.98
2023-04-16T09:56:15.438Z,12.93
2023-04-16T09:58:42.761Z,12.20
2023-04-16T10:01:11.028Z,9.63
2023-04-16T10:03:40.576Z,9.80
2023-04-16T10:06:14.327Z,8.65
2023-04-16T10:08:50.001Z,10.30
2023-04-16T10:11:18.460Z,8.77
2023-04-16T10:13:45.980Z,9.23
2023-04-16T10:16:13.433Z,10.90
2023-04-16T10:18:41.954Z,10.57
2023-04-16T10:21:12.703Z,9.02
2023-04-16T10:23:40.660Z,7.65
2023-04-16T10:26:08.044Z,10.90
2023-04-16T10:28:35.737Z,11.20
2023-04-16T10:31:04.525Z,10.50
2023-04-16T10:33:41.584Z,11.02
2023-04-16T10:36:12.907Z,9.35
2023-04-16T10:38:47.612Z,9.23
2023-04-16T10:41:15.132Z,9.23
2023-04-16T10:43:44.108Z,8.77
2023-04-16T10:46:20.380Z,9.32
2023-04-16T10:48:50.301Z,10.95
2023-04-16T10:51:44.453Z,10.88
2023-04-16T10:54:12.684Z,11.18
2023-04-16T10:56:40.091Z,11.07
2023-04-16T10:59:08.229Z,11.88
2023-04-16T11:01:36.880Z,9.35
2023-04-16T11:04:23.060Z,9.88
2023-04-16T11:07:03.187Z,9.98
2023-04-16T11:09:49.882Z,11.45
2023-04-16T11:12:21.236Z,11.02
2023-04-16T11:14:52.593Z,10.07
2023-04-16T11:17:20.474Z,10.13
2023-04-16T11:19:47.804Z,10.90
2023-04-16T11:22:17.163Z,13.32
2023-04-16T11:24:45.228Z,12.07
2023-04-16T11:27:16.195Z,11.57
2023-04-16T11:29:46.336Z,8.65
2023-04-16T11:32:24.730Z,10.93
2023-04-16T11:34:52.212Z,8.90
2023-04-16T11:37:23.037Z,9.77
2023-04-16T11:39:53.516Z,9.85
2023-04-16T11:42:22.777Z,8.45
2023-04-16T11:44:54.634Z,12.52
2023-04-16T11:47:22.266Z,11.50
2023-04-16T11:49:49.590Z,13.07
2023-04-16T11:52:33.169Z,14.90
2023-04-16T11:55:00.557Z,13.20
2023-04-16T11:57:28.962Z,11.13
2023-04-16T12:00:02.047Z,15.02
2023-04-16T12:02:37.523Z,16.52
2023-04-16T12:05:09.111Z,13.82
2023-04-16T12:07:46.243Z,14.50
2023-04-16T12:10:13.594Z,14.57
2023-04-16T12:12:40.795Z,14.50
2023-04-16T12:15:08.412Z,12.40
2023-04-16T12:17:36.534Z,11.35
2023-04-16T12:20:07.914Z,12.18
2023-04-16T12:22:37.098Z,13.88
2023-04-16T12:25:04.752Z,14.93
2023-04-16T12:27:53.493Z,15.32
2023-04-16T12:30:22.943Z,14.82
2023-04-16T12:32:56.088Z,15.00
2023-04-16T12:35:32.720Z,16.95
2023-04-16T12:38:00.532Z,15.48
2023-04-16T12:40:28.085Z,19.92
2023-04-16T12:42:55.567Z,19.38
2023-04-16T12:45:23.165Z,16.35
2023-04-16T12:47:50.721Z,17.30
2023-04-16T12:50:18.600Z,16.90
2023-04-16T12:52:45.981Z,13.18
2023-04-16T12:55:14.189Z,17.38
2023-04-16T12:57:42.752Z,14.88
2023-04-16T13:00:10.703Z,18.35
2023-04-16T13:02:38.352Z,16.52
2023-04-16T13:05:05.816Z,14.75
2023-04-16T13:07:34.073Z,15.75
2023-04-16T13:10:01.959Z,16.40
2023-04-16T13:12:29.248Z,15.13
2023-04-16T13:14:56.571Z,18.88
2023-04-16T13:17:23.803Z,16.40
2023-04-16T13:19:51.364Z,17.77
2023-04-16T13:22:18.744Z,18.88
2023-04-16T13:24:46.612Z,18.63
2023-04-16T13:27:16.200Z,20.05
2023-04-16T13:29:43.631Z,16.05
2023-04-16T13:32:13.664Z,16.27
2023-04-16T13:34:41.182Z,17.48
2023-04-16T13:37:08.485Z,13.57
2023-04-16T13:39:35.771Z,16.55
2023-04-16T13:42:03.045Z,16.48
2023-04-16T13:44:30.265Z,16.95
2023-04-16T13:46:57.590Z,16.17
2023-04-16T13:49:24.945Z,16.85
2023-04-16T13:51:52.186Z,17.92
2023-04-16T13:54:19.704Z,16.00
2023-04-16T13:56:47.213Z,14.45
2023-04-16T13:59:15.807Z,15.70
2023-04-16T14:01:43.159Z,15.38
2023-04-16T14:04:10.718Z,18.25
2023-04-16T14:06:37.980Z,17.20
2023-04-16T14:09:05.545Z,14.68
2023-04-16T14:11:32.988Z,15.85
2023-04-16T14:14:00.250Z,14.55
2023-04-16T14:16:27.830Z,15.23
2023-04-16T14:18:55.383Z,13.90
2023-04-16T14:21:22.997Z,14.65
2023-04-16T14:23:51.358Z,14.32
2023-04-16T14:26:18.934Z,17.10
2023-04-16T14:28:46.372Z,18.55
2023-04-16T14:31:13.671Z,14.57
2023-04-16T14:33:41.371Z,13.52
2023-04-16T14:36:08.991Z,13.57
2023-04-16T14:38:36.851Z,12.68
2023-04-16T14:41:04.340Z,14.82
2023-04-16T14:43:31.562Z,14.32
2023-04-16T14:45:59.062Z,11.88
2023-04-16T14:48:26.747Z,14.68
2023-04-16T14:50:54.464Z,14.25
2023-04-16T14:53:22.001Z,16.00
2023-04-16T14:55:49.851Z,17.50
2023-04-16T14:58:17.403Z,15.00
2023-04-16T15:00:44.769Z,15.02
2023-04-16T15:03:12.187Z,12.13
2023-04-16T15:05:39.530Z,13.77
2023-04-16T15:08:07.430Z,11.40
2023-04-16T15:10:35.120Z,12.05
2023-04-16T15:13:03.434Z,10.93
2023-04-16T15:15:30.691Z,11.07
2023-04-16T15:17:58.052Z,12.45
2023-04-16T15:20:25.348Z,11.90
2023-04-16T15:22:53.949Z,11.65
2023-04-16T15:25:21.432Z,11.15
2023-04-16T15:27:48.914Z,10.45
2023-04-16T15:30:16.355Z,10.50
2023-04-16T15:32:44.755Z,11.88
2023-04-16T15:35:12.896Z,12.88
2023-04-16T15:37:40.439Z,10.35
2023-04-16T15:40:09.813Z,9.18
2023-04-16T15:42:39.661Z,10.60
2023-04-16T15:45:08.640Z,13.48
2023-04-16T15:47:37.181Z,10.98
2023-04-16T15:50:07.675Z,12.65
2023-04-16T15:52:37.385Z,9.82
2023-04-16T15:55:07.135Z,11.30
2023-04-16T15:57:36.054Z,10.45
2023-04-16T16:00:14.376Z,12.75
2023-04-16T16:02:44.166Z,11.13
2023-04-16T16:05:14.526Z,11.68
2023-04-16T16:07:45.292Z,12.18
2023-04-16T16:10:14.833Z,9.70
2023-04-16T16:12:42.387Z,13.27
2023-04-16T16:15:12.106Z,11.23
2023-04-16T16:17:41.713Z,10.13
2023-04-16T16:20:10.521Z,10.88
2023-04-16T16:22:38.352Z,10.38
2023-04-16T16:25:08.192Z,10.43
2023-04-16T16:27:37.583Z,12.32
2023-04-16T16:30:07.290Z,10.88
2023-04-16T16:32:35.742Z,10.38
2023-04-16T16:35:04.973Z,9.00
2023-04-16T16:37:33.587Z,11.40
2023-04-16T16:40:02.495Z,12.13
2023-04-16T16:42:29.866Z,10.50
2023-04-16T16:44:57.595Z,10.02
2023-04-16T16:47:25.033Z,13.27
2023-04-16T16:49:54.636Z,13.02
2023-04-16T16:52:26.129Z,10.40
2023-04-16T16:54:56.912Z,10.70
2023-04-16T16:57:24.890Z,12.82
2023-04-16T16:59:52.151Z,11.10
2023-04-16T17:02:19.426Z,9.52
2023-04-16T17:04:46.796Z,10.25
2023-04-16T17:07:13.999Z,10.25
2023-04-16T17:09:41.278Z,8.40
2023-04-16T17:12:08.635Z,8.90
2023-04-16T17:14:35.964Z,8.15
2023-04-16T17:17:03.330Z,7.57
2023-04-16T17:19:30.830Z,7.15
2023-04-16T17:21:58.021Z,10.05
2023-04-16T17:24:25.367Z,7.70
2023-04-16T17:26:52.553Z,8.43
2023-04-16T17:29:23.455Z,7.20
2023-04-16T17:31:50.768Z,9.98
2023-04-16T17:34:19.582Z,8.57
2023-04-16T17:36:52.820Z,7.63
2023-04-16T17:39:20.978Z,7.60
2023-04-16T17:41:54.141Z,11.40
2023-04-16T17:44:22.995Z,8.13
2023-04-16T17:46:50.450Z,8.70
2023-04-16T17:49:17.642Z,8.20
2023-04-16T17:51:44.886Z,6.93
2023-04-16T17:54:12.361Z,7.10
2023-04-16T17:56:39.694Z,6.07
2023-04-16T17:59:07.053Z,6.82
2023-04-16T18:01:34.474Z,6.88
2023-04-16T18:04:02.105Z,7.07
2023-04-16T18:06:29.451Z,7.78
2023-04-16T18:08:56.883Z,7.57
2023-04-16T18:11:24.133Z,6.38
2023-04-16T18:13:53.564Z,6.70
2023-04-16T18:16:22.422Z,6.65
2023-04-16T18:18:49.798Z,4.47
2023-04-16T18:21:17.079Z,4.60
2023-04-16T18:23:44.375Z,3.92
2023-04-16T18:26:12.750Z,4.88
2023-04-16T18:28:40.177Z,4.05
2023-04-16T18:31:07.867Z,3.88
2023-04-16T18:33:54.144Z,4.47
2023-04-16T18:36:22.606Z,4.57
2023-04-16T18:39:00.136Z,3.65
2023-04-16T18:41:28.698Z,3.20
2023-04-16T18:43:55.967Z,3.13
2023-04-16T18:46:23.268Z,2.85
2023-04-16T18:48:50.603Z,4.25
2023-04-16T18:51:17.924Z,3.13
2023-04-16T18:53:45.782Z,3.63
2023-04-16T18:56:13.330Z,2.72
2023-04-16T18:58:40.662Z,3.22
2023-04-16T19:01:11.329Z,3.05
2023-04-16T19:03:38.861Z,2.50
2023-04-16T19:06:06.362Z,2.30
2023-04-16T19:08:33.635Z,2.42
2023-04-16T19:11:01.023Z,2.55
2023-04-16T19:13:30.397Z,3.42
2023-04-16T19:16:02.073Z,2.60
2023-04-16T19:18:29.651Z,2.25
2023-04-16T19:21:02.735Z,2.38
2023-04-16T19:23:29.997Z,3.30
2023-04-16T19:25:57.848Z,4.05
2023-04-16T19:28:25.736Z,3.53
2023-04-16T19:30:53.597Z,2.85
2023-04-16T19:33:20.942Z,2.85
2023-04-16T19:35:48.203Z,2.67
2023-04-16T19:38:15.653Z,2.42
2023-04-16T19:40:49.352Z,3.58
2023-04-16T19:43:16.607Z,2.92
2023-04-16T19:45:47.472Z,2.40
2023-04-16T19:48:14.946Z,1.80
2023-04-16T19:50:43.160Z,1.27
2023-04-16T19:53:10.671Z,1.83
2023-04-16T19:55:40.056Z,1.85
2023-04-16T19:58:07.420Z,1.50
2023-04-16T20:00:35.170Z,1.30
2023-04-16T20:03:02.875Z,1.80
2023-04-16T20:05:30.431Z,1.75
2023-04-16T20:07:57.838Z,1.55
2023-04-16T20:10:26.149Z,1.55
2023-04-16T20:12:53.417Z,1.75
2023-04-16T20:15:21.037Z,1.80
2023-04-16T20:17:48.330Z,2.30
2023-04-16T20:20:16.481Z,1.90
2023-04-16T20:22:43.973Z,2.28
2023-04-16T20:25:11.584Z,1.58
2023-04-16T20:27:38.834Z,1.20
2023-04-16T20:30:06.533Z,1.85
2023-04-16T20:32:33.887Z,2.03
2023-04-16T20:35:02.113Z,2.10
2023-04-16T20:37:29.355Z,1.83
2023-04-16T20:39:56.597Z,1.65
2023-04-16T20:42:26.392Z,1.88
2023-04-16T20:44:56.587Z,1.25
2023-04-16T20:47:24.054Z,1.67
2023-04-16T20:49:52.731Z,1.55
2023-04-16T20:52:20.453Z,1.90
2023-04-16T20:54:48.157Z,1.73
2023-04-16T20:57:15.483Z,1.70
2023-04-16T20:59:42.782Z,1.20
2023-04-16T21:02:10.152Z,1.20
2023-04-16T21:04:37.637Z,1.30
2023-04-16T21:07:04.974Z,1.25
2023-04-16T21:09:32.168Z,1.10
2023-04-16T21:11:59.427Z,1.50
2023-04-16T21:14:26.683Z,1.13
2023-04-16T21:16:54.834Z,1.10
2023-04-16T21:19:22.557Z,1.30
2023-04-16T21:21:49.789Z,1.77
2023-04-16T21:24:17.053Z,1.33
2023-04-16T21:26:44.267Z,1.70
2023-04-16T21:29:11.792Z,1.13
2023-04-16T21:31:39.256Z,1.15
2023-04-16T21:34:06.575Z,1.13
2023-04-16T21:36:34.187Z,1.00
2023-04-16T21:39:01.582Z,1.60
2023-04-16T21:41:28.901Z,1.30
2023-04-16T21:43:56.180Z,1.25
2023-04-16T21:46:23.562Z,1.40
2023-04-16T21:48:50.911Z,1.27
2023-04-16T21:51:18.226Z,1.30
2023-04-16T21:53:45.504Z,1.52
2023-04-16T21:56:12.810Z,1.45
2023-04-16T21:58:39.989Z,1.88
2023-04-16T22:01:09.524Z,1.65
2023-04-16T22:03:40.474Z,2.05
2023-04-16T22:06:08.302Z,1.23
2023-04-16T22:08:35.624Z,1.73
2023-04-16T22:11:03.483Z,1.63
2023-04-16T22:13:32.419Z,1.48
2023-04-16T22:16:01.681Z,2.00
2023-04-16T22:18:32.857Z,1.42
2023-04-16T22:21:00.465Z,2.03
2023-04-16T22:23:27.715Z,1.83
2023-04-16T22:25:55.999Z,2.65
2023-04-16T22:28:23.542Z,2.80
2023-04-16T22:30:51.282Z,2.67
2023-04-16T22:33:18.638Z,2.80
2023-04-16T22:35:46.197Z,2.20
2023-04-16T22:38:13.404Z,2.63
2023-04-16T22:40:40.707Z,3.35
2023-04-16T22:43:07.949Z,3.30
2023-04-16T22:45:35.746Z,3.03
2023-04-16T22:48:03.147Z,3.28
2023-04-16T22:50:32.087Z,3.22
2023-04-16T22:52:59.355Z,4.00
2023-04-16T22:55:26.609Z,4.85
2023-04-16T22:57:53.847Z,4.45
2023-04-16T23:00:21.257Z,3.45
2023-04-16T23:02:48.601Z,4.97
2023-04-16T23:05:15.968Z,5.93
2023-04-16T23:07:43.234Z,6.32
2023-04-16T23:10:10.564Z,6.20
2023-04-16T23:12:37.783Z,6.47
2023-04-16T23:15:06.631Z,6.43
2023-04-16T23:17:35.170Z,5.38
2023-04-16T23:20:02.821Z,5.32
2023-04-16T23:22:30.189Z,6.10
2023-04-16T23:24:57.490Z,4.88
2023-04-16T23:27:24.719Z,4.88
2023-04-16T23:29:51.973Z,4.88
2023-04-16T23:32:19.293Z,4.13
2023-04-16T23:34:46.538Z,3.90
2023-04-16T23:37:13.767Z,3.60
2023-04-16T23:39:41.040Z,2.83
2023-04-16T23:42:08.353Z,2.78
2023-04-16T23:44:35.686Z,2.65
2023-04-16T23:47:03.054Z,2.60
2023-04-16T23:49:30.688Z,2.55
2023-04-16T23:51:57.999Z,2.28
2023-04-16T23:54:25.406Z,2.20
2023-04-16T23:56:52.628Z,1.77
2023-04-16T23:59:19.888Z,1.40
